sensor_id;sensor_type;location;lat;lon;timestamp;temperature;humidity
7704;DHT22;3894;49.700;10.770;2022-07-29T00:00:14;22.00;77.70
7704;DHT22;3894;49.700;10.770;2022-07-29T00:02:40;22.00;77.80
7704;DHT22;3894;49.700;10.770;2022-07-29T00:05:05;21.90;78.00
7704;DHT22;3894;49.700;10.770;2022-07-29T00:07:33;21.90;78.10
7704;DHT22;3894;49.700;10.770;2022-07-29T00:09:58;21.80;78.10
7704;DHT22;3894;49.700;10.770;2022-07-29T00:12:24;21.80;78.10
7704;DHT22;3894;49.700;10.770;2022-07-29T00:14:50;21.80;78.30
7704;DHT22;3894;49.700;10.770;2022-07-29T00:17:15;21.70;78.40
7704;DHT22;3894;49.700;10.770;2022-07-29T00:19:41;21.70;78.50
7704;DHT22;3894;49.700;10.770;2022-07-29T00:22:07;21.70;78.20
7704;DHT22;3894;49.700;10.770;2022-07-29T00:24:32;21.70;78.30
7704;DHT22;3894;49.700;10.770;2022-07-29T00:26:58;21.80;78.30
7704;DHT22;3894;49.700;10.770;2022-07-29T00:29:24;21.70;78.10
7704;DHT22;3894;49.700;10.770;2022-07-29T00:31:50;21.70;78.20
7704;DHT22;3894;49.700;10.770;2022-07-29T00:34:16;21.70;78.20
7704;DHT22;3894;49.700;10.770;2022-07-29T00:37:00;21.60;78.00
7704;DHT22;3894;49.700;10.770;2022-07-29T00:39:25;21.60;78.20
7704;DHT22;3894;49.700;10.770;2022-07-29T00:41:51;21.70;78.40
7704;DHT22;3894;49.700;10.770;2022-07-29T00:44:17;21.70;78.40
7704;DHT22;3894;49.700;10.770;2022-07-29T00:46:43;21.70;78.50
7704;DHT22;3894;49.700;10.770;2022-07-29T00:49:08;21.70;78.40
7704;DHT22;3894;49.700;10.770;2022-07-29T00:51:37;21.70;78.30
7704;DHT22;3894;49.700;10.770;2022-07-29T00:54:04;21.70;78.20
7704;DHT22;3894;49.700;10.770;2022-07-29T00:56:33;21.80;78.30
7704;DHT22;3894;49.700;10.770;2022-07-29T00:58:59;21.80;78.20
7704;DHT22;3894;49.700;10.770;2022-07-29T01:01:26;21.70;78.10
7704;DHT22;3894;49.700;10.770;2022-07-29T01:03:52;21.70;78.30
7704;DHT22;3894;49.700;10.770;2022-07-29T01:06:19;21.70;78.20
7704;DHT22;3894;49.700;10.770;2022-07-29T01:08:45;21.70;78.30
7704;DHT22;3894;49.700;10.770;2022-07-29T01:11:13;21.70;78.20
7704;DHT22;3894;49.700;10.770;2022-07-29T01:13:39;21.70;78.50
7704;DHT22;3894;49.700;10.770;2022-07-29T01:16:16;21.60;78.40
7704;DHT22;3894;49.700;10.770;2022-07-29T01:18:46;21.60;78.50
7704;DHT22;3894;49.700;10.770;2022-07-29T01:21:44;21.60;78.70
7704;DHT22;3894;49.700;10.770;2022-07-29T01:26:58;21.60;79.20
7704;DHT22;3894;49.700;10.770;2022-07-29T01:32:10;21.60;79.40
7704;DHT22;3894;49.700;10.770;2022-07-29T01:34:48;21.60;79.50
7704;DHT22;3894;49.700;10.770;2022-07-29T01:37:28;21.50;79.90
7704;DHT22;3894;49.700;10.770;2022-07-29T01:39:56;21.40;80.60
7704;DHT22;3894;49.700;10.770;2022-07-29T01:45:37;21.30;81.70
7704;DHT22;3894;49.700;10.770;2022-07-29T01:48:14;21.30;82.20
7704;DHT22;3894;49.700;10.770;2022-07-29T01:50:49;21.30;81.70
7704;DHT22;3894;49.700;10.770;2022-07-29T01:53:33;21.20;81.40
7704;DHT22;3894;49.700;10.770;2022-07-29T01:56:00;21.10;82.20
7704;DHT22;3894;49.700;10.770;2022-07-29T01:58:28;21.10;82.10
7704;DHT22;3894;49.700;10.770;2022-07-29T02:00:56;21.00;82.60
7704;DHT22;3894;49.700;10.770;2022-07-29T02:03:23;21.10;83.10
7704;DHT22;3894;49.700;10.770;2022-07-29T02:05:50;21.10;83.10
7704;DHT22;3894;49.700;10.770;2022-07-29T02:08:16;21.00;83.20
7704;DHT22;3894;49.700;10.770;2022-07-29T02:10:46;21.00;83.30
7704;DHT22;3894;49.700;10.770;2022-07-29T02:13:13;21.00;83.90
7704;DHT22;3894;49.700;10.770;2022-07-29T02:15:42;20.90;84.30
7704;DHT22;3894;49.700;10.770;2022-07-29T02:18:11;20.90;84.50
7704;DHT22;3894;49.700;10.770;2022-07-29T02:20:38;20.70;84.50
7704;DHT22;3894;49.700;10.770;2022-07-29T02:23:07;20.60;85.00
7704;DHT22;3894;49.700;10.770;2022-07-29T02:25:36;20.50;85.10
7704;DHT22;3894;49.700;10.770;2022-07-29T02:28:02;20.40;85.50
7704;DHT22;3894;49.700;10.770;2022-07-29T02:30:30;20.30;85.00
7704;DHT22;3894;49.700;10.770;2022-07-29T02:32:56;20.10;85.00
7704;DHT22;3894;49.700;10.770;2022-07-29T02:35:22;20.10;85.50
7704;DHT22;3894;49.700;10.770;2022-07-29T02:37:48;20.10;85.40
7704;DHT22;3894;49.700;10.770;2022-07-29T02:40:38;20.10;85.80
7704;DHT22;3894;49.700;10.770;2022-07-29T02:43:06;20.10;85.60
7704;DHT22;3894;49.700;10.770;2022-07-29T02:45:33;20.10;86.00
7704;DHT22;3894;49.700;10.770;2022-07-29T02:48:05;19.90;86.30
7704;DHT22;3894;49.700;10.770;2022-07-29T02:50:38;19.80;86.90
7704;DHT22;3894;49.700;10.770;2022-07-29T02:53:14;19.80;87.10
7704;DHT22;3894;49.700;10.770;2022-07-29T02:55:46;19.80;86.90
7704;DHT22;3894;49.700;10.770;2022-07-29T02:58:35;19.80;86.80
7704;DHT22;3894;49.700;10.770;2022-07-29T03:01:04;19.90;86.80
7704;DHT22;3894;49.700;10.770;2022-07-29T03:03:37;20.00;86.80
7704;DHT22;3894;49.700;10.770;2022-07-29T03:06:03;20.00;87.80
7704;DHT22;3894;49.700;10.770;2022-07-29T03:08:31;19.80;88.50
7704;DHT22;3894;49.700;10.770;2022-07-29T03:10:57;19.80;89.80
7704;DHT22;3894;49.700;10.770;2022-07-29T03:13:24;19.70;90.10
7704;DHT22;3894;49.700;10.770;2022-07-29T03:15:50;19.70;89.70
7704;DHT22;3894;49.700;10.770;2022-07-29T03:18:16;19.70;90.20
7704;DHT22;3894;49.700;10.770;2022-07-29T03:20:42;19.70;90.70
7704;DHT22;3894;49.700;10.770;2022-07-29T03:23:08;19.60;90.90
7704;DHT22;3894;49.700;10.770;2022-07-29T03:25:33;19.60;90.90
7704;DHT22;3894;49.700;10.770;2022-07-29T03:27:59;19.60;91.20
7704;DHT22;3894;49.700;10.770;2022-07-29T03:30:25;19.60;90.50
7704;DHT22;3894;49.700;10.770;2022-07-29T03:32:51;19.60;90.60
7704;DHT22;3894;49.700;10.770;2022-07-29T03:35:18;19.60;90.50
7704;DHT22;3894;49.700;10.770;2022-07-29T03:37:44;19.60;90.30
7704;DHT22;3894;49.700;10.770;2022-07-29T03:40:13;19.40;90.10
7704;DHT22;3894;49.700;10.770;2022-07-29T03:42:40;19.30;90.30
7704;DHT22;3894;49.700;10.770;2022-07-29T03:45:09;19.30;90.40
7704;DHT22;3894;49.700;10.770;2022-07-29T03:47:39;19.30;90.40
7704;DHT22;3894;49.700;10.770;2022-07-29T03:50:07;19.30;90.40
7704;DHT22;3894;49.700;10.770;2022-07-29T03:52:34;19.30;91.00
7704;DHT22;3894;49.700;10.770;2022-07-29T03:55:00;19.30;91.40
7704;DHT22;3894;49.700;10.770;2022-07-29T03:57:28;19.30;91.10
7704;DHT22;3894;49.700;10.770;2022-07-29T03:59:56;19.30;90.90
7704;DHT22;3894;49.700;10.770;2022-07-29T04:02:23;19.30;90.90
7704;DHT22;3894;49.700;10.770;2022-07-29T04:04:50;19.10;91.50
7704;DHT22;3894;49.700;10.770;2022-07-29T04:07:16;19.00;92.00
7704;DHT22;3894;49.700;10.770;2022-07-29T04:09:42;19.00;91.90
7704;DHT22;3894;49.700;10.770;2022-07-29T04:12:08;19.00;91.90
7704;DHT22;3894;49.700;10.770;2022-07-29T04:14:34;19.10;92.10
7704;DHT22;3894;49.700;10.770;2022-07-29T04:17:01;19.20;92.10
7704;DHT22;3894;49.700;10.770;2022-07-29T04:19:27;19.20;92.10
7704;DHT22;3894;49.700;10.770;2022-07-29T04:21:53;19.20;92.10
7704;DHT22;3894;49.700;10.770;2022-07-29T04:24:18;19.30;92.10
7704;DHT22;3894;49.700;10.770;2022-07-29T04:26:45;19.30;92.10
7704;DHT22;3894;49.700;10.770;2022-07-29T04:29:11;19.40;92.30
7704;DHT22;3894;49.700;10.770;2022-07-29T04:31:37;19.40;92.40
7704;DHT22;3894;49.700;10.770;2022-07-29T04:34:03;19.50;92.40
7704;DHT22;3894;49.700;10.770;2022-07-29T04:36:29;19.50;92.20
7704;DHT22;3894;49.700;10.770;2022-07-29T04:38:57;19.60;92.10
7704;DHT22;3894;49.700;10.770;2022-07-29T04:41:23;19.60;92.30
7704;DHT22;3894;49.700;10.770;2022-07-29T04:43:48;19.60;92.70
7704;DHT22;3894;49.700;10.770;2022-07-29T04:46:14;19.60;93.20
7704;DHT22;3894;49.700;10.770;2022-07-29T04:48:40;19.60;93.10
7704;DHT22;3894;49.700;10.770;2022-07-29T04:51:05;19.60;93.60
7704;DHT22;3894;49.700;10.770;2022-07-29T04:53:31;19.60;93.40
7704;DHT22;3894;49.700;10.770;2022-07-29T04:55:57;19.70;93.00
7704;DHT22;3894;49.700;10.770;2022-07-29T04:58:22;19.70;93.20
7704;DHT22;3894;49.700;10.770;2022-07-29T05:00:49;19.80;92.80
7704;DHT22;3894;49.700;10.770;2022-07-29T05:03:14;19.70;92.40
7704;DHT22;3894;49.700;10.770;2022-07-29T05:05:40;19.50;92.30
7704;DHT22;3894;49.700;10.770;2022-07-29T05:08:06;19.30;92.80
7704;DHT22;3894;49.700;10.770;2022-07-29T05:10:35;19.20;92.80
7704;DHT22;3894;49.700;10.770;2022-07-29T05:13:07;19.20;93.20
7704;DHT22;3894;49.700;10.770;2022-07-29T05:15:34;19.30;93.00
7704;DHT22;3894;49.700;10.770;2022-07-29T05:18:00;19.30;93.10
7704;DHT22;3894;49.700;10.770;2022-07-29T05:20:27;19.20;93.30
7704;DHT22;3894;49.700;10.770;2022-07-29T05:22:58;19.20;93.70
7704;DHT22;3894;49.700;10.770;2022-07-29T05:25:25;19.20;93.80
7704;DHT22;3894;49.700;10.770;2022-07-29T05:27:54;19.20;93.80
7704;DHT22;3894;49.700;10.770;2022-07-29T05:30:20;19.30;93.90
7704;DHT22;3894;49.700;10.770;2022-07-29T05:32:46;19.50;94.30
7704;DHT22;3894;49.700;10.770;2022-07-29T05:35:13;19.50;94.10
7704;DHT22;3894;49.700;10.770;2022-07-29T05:37:39;19.60;93.90
7704;DHT22;3894;49.700;10.770;2022-07-29T05:40:05;19.70;93.60
7704;DHT22;3894;49.700;10.770;2022-07-29T05:42:31;19.90;93.50
7704;DHT22;3894;49.700;10.770;2022-07-29T05:44:57;19.90;93.60
7704;DHT22;3894;49.700;10.770;2022-07-29T05:47:22;20.20;93.60
7704;DHT22;3894;49.700;10.770;2022-07-29T05:49:48;20.60;93.60
7704;DHT22;3894;49.700;10.770;2022-07-29T05:52:14;20.90;92.70
7704;DHT22;3894;49.700;10.770;2022-07-29T05:54:40;21.00;92.70
7704;DHT22;3894;49.700;10.770;2022-07-29T05:57:06;21.20;92.40
7704;DHT22;3894;49.700;10.770;2022-07-29T05:59:36;21.30;92.20
7704;DHT22;3894;49.700;10.770;2022-07-29T06:02:01;21.70;91.80
7704;DHT22;3894;49.700;10.770;2022-07-29T06:04:27;22.00;91.10
7704;DHT22;3894;49.700;10.770;2022-07-29T06:06:53;22.20;90.70
7704;DHT22;3894;49.700;10.770;2022-07-29T06:09:18;22.50;90.40
7704;DHT22;3894;49.700;10.770;2022-07-29T06:11:44;22.80;89.50
7704;DHT22;3894;49.700;10.770;2022-07-29T06:14:10;23.00;88.50
7704;DHT22;3894;49.700;10.770;2022-07-29T06:16:36;23.20;88.10
7704;DHT22;3894;49.700;10.770;2022-07-29T06:19:01;23.40;86.70
7704;DHT22;3894;49.700;10.770;2022-07-29T06:21:27;23.40;86.00
7704;DHT22;3894;49.700;10.770;2022-07-29T06:23:53;23.50;85.90
7704;DHT22;3894;49.700;10.770;2022-07-29T06:26:18;23.80;86.80
7704;DHT22;3894;49.700;10.770;2022-07-29T06:28:44;24.00;85.30
7704;DHT22;3894;49.700;10.770;2022-07-29T06:31:09;24.20;84.00
7704;DHT22;3894;49.700;10.770;2022-07-29T06:33:35;24.30;83.00
7704;DHT22;3894;49.700;10.770;2022-07-29T06:36:04;24.40;82.70
7704;DHT22;3894;49.700;10.770;2022-07-29T06:38:29;24.40;82.10
7704;DHT22;3894;49.700;10.770;2022-07-29T06:40:55;24.40;82.00
7704;DHT22;3894;49.700;10.770;2022-07-29T06:43:39;24.50;82.40
7704;DHT22;3894;49.700;10.770;2022-07-29T06:46:11;24.60;82.10
7704;DHT22;3894;49.700;10.770;2022-07-29T06:48:38;24.60;81.80
7704;DHT22;3894;49.700;10.770;2022-07-29T06:51:05;24.70;82.40
7704;DHT22;3894;49.700;10.770;2022-07-29T06:53:31;24.60;81.70
7704;DHT22;3894;49.700;10.770;2022-07-29T06:55:58;24.60;80.70
7704;DHT22;3894;49.700;10.770;2022-07-29T06:58:24;24.70;80.90
7704;DHT22;3894;49.700;10.770;2022-07-29T07:00:50;24.80;80.60
7704;DHT22;3894;49.700;10.770;2022-07-29T07:03:17;24.90;80.00
7704;DHT22;3894;49.700;10.770;2022-07-29T07:05:46;25.00;79.70
7704;DHT22;3894;49.700;10.770;2022-07-29T07:08:13;25.20;79.50
7704;DHT22;3894;49.700;10.770;2022-07-29T07:10:42;25.20;79.10
7704;DHT22;3894;49.700;10.770;2022-07-29T07:13:07;25.40;78.40
7704;DHT22;3894;49.700;10.770;2022-07-29T07:15:33;25.40;79.10
7704;DHT22;3894;49.700;10.770;2022-07-29T07:18:00;25.50;79.30
7704;DHT22;3894;49.700;10.770;2022-07-29T07:20:26;25.60;78.90
7704;DHT22;3894;49.700;10.770;2022-07-29T07:22:51;25.80;78.80
7704;DHT22;3894;49.700;10.770;2022-07-29T07:25:20;26.00;78.10
7704;DHT22;3894;49.700;10.770;2022-07-29T07:27:49;26.20;77.60
7704;DHT22;3894;49.700;10.770;2022-07-29T07:30:15;26.40;78.00
7704;DHT22;3894;49.700;10.770;2022-07-29T07:32:40;26.60;77.20
7704;DHT22;3894;49.700;10.770;2022-07-29T07:35:07;26.60;76.80
7704;DHT22;3894;49.700;10.770;2022-07-29T07:37:34;26.80;76.30
7704;DHT22;3894;49.700;10.770;2022-07-29T07:40:00;26.70;75.90
7704;DHT22;3894;49.700;10.770;2022-07-29T07:42:30;26.40;76.80
7704;DHT22;3894;49.700;10.770;2022-07-29T07:44:55;26.30;77.40
7704;DHT22;3894;49.700;10.770;2022-07-29T07:47:21;26.30;77.90
7704;DHT22;3894;49.700;10.770;2022-07-29T07:49:52;26.60;77.10
7704;DHT22;3894;49.700;10.770;2022-07-29T07:52:19;26.60;77.00
7704;DHT22;3894;49.700;10.770;2022-07-29T07:54:45;26.60;76.70
7704;DHT22;3894;49.700;10.770;2022-07-29T07:57:12;26.90;76.60
7704;DHT22;3894;49.700;10.770;2022-07-29T07:59:38;27.20;76.30
7704;DHT22;3894;49.700;10.770;2022-07-29T08:02:04;27.50;75.70
7704;DHT22;3894;49.700;10.770;2022-07-29T08:04:30;27.30;75.40
7704;DHT22;3894;49.700;10.770;2022-07-29T08:06:56;26.60;75.90
7704;DHT22;3894;49.700;10.770;2022-07-29T08:09:23;26.70;77.30
7704;DHT22;3894;49.700;10.770;2022-07-29T08:11:50;27.00;76.70
7704;DHT22;3894;49.700;10.770;2022-07-29T08:14:16;26.90;75.50
7704;DHT22;3894;49.700;10.770;2022-07-29T08:16:42;26.70;76.10
7704;DHT22;3894;49.700;10.770;2022-07-29T08:19:11;26.80;76.90
7704;DHT22;3894;49.700;10.770;2022-07-29T08:21:37;26.90;77.20
7704;DHT22;3894;49.700;10.770;2022-07-29T08:24:03;27.40;77.00
7704;DHT22;3894;49.700;10.770;2022-07-29T08:26:47;27.60;74.50
7704;DHT22;3894;49.700;10.770;2022-07-29T08:29:13;27.90;74.20
7704;DHT22;3894;49.700;10.770;2022-07-29T08:31:39;28.30;74.70
7704;DHT22;3894;49.700;10.770;2022-07-29T08:34:08;28.30;74.50
7704;DHT22;3894;49.700;10.770;2022-07-29T08:36:34;28.00;74.00
7704;DHT22;3894;49.700;10.770;2022-07-29T08:39:01;28.00;74.20
7704;DHT22;3894;49.700;10.770;2022-07-29T08:41:27;27.40;74.00
7704;DHT22;3894;49.700;10.770;2022-07-29T08:43:53;27.70;75.50
7704;DHT22;3894;49.700;10.770;2022-07-29T08:46:20;27.70;74.80
7704;DHT22;3894;49.700;10.770;2022-07-29T08:48:46;27.30;75.70
7704;DHT22;3894;49.700;10.770;2022-07-29T08:51:16;27.50;76.10
7704;DHT22;3894;49.700;10.770;2022-07-29T08:53:43;27.80;75.70
7704;DHT22;3894;49.700;10.770;2022-07-29T08:56:13;27.90;75.40
7704;DHT22;3894;49.700;10.770;2022-07-29T08:58:39;27.70;75.70
7704;DHT22;3894;49.700;10.770;2022-07-29T09:01:06;27.80;75.70
7704;DHT22;3894;49.700;10.770;2022-07-29T09:03:37;27.60;76.20
7704;DHT22;3894;49.700;10.770;2022-07-29T09:06:04;27.50;75.90
7704;DHT22;3894;49.700;10.770;2022-07-29T09:08:33;26.90;76.50
7704;DHT22;3894;49.700;10.770;2022-07-29T09:11:01;27.20;78.10
7704;DHT22;3894;49.700;10.770;2022-07-29T09:13:27;27.40;77.00
7704;DHT22;3894;49.700;10.770;2022-07-29T09:15:53;27.50;76.80
7704;DHT22;3894;49.700;10.770;2022-07-29T09:21:01;27.80;76.10
7704;DHT22;3894;49.700;10.770;2022-07-29T09:24:02;27.60;76.70
7704;DHT22;3894;49.700;10.770;2022-07-29T09:26:32;28.10;76.10
7704;DHT22;3894;49.700;10.770;2022-07-29T09:28:59;28.30;75.80
7704;DHT22;3894;49.700;10.770;2022-07-29T09:31:37;28.40;75.20
7704;DHT22;3894;49.700;10.770;2022-07-29T09:34:03;28.00;74.40
7704;DHT22;3894;49.700;10.770;2022-07-29T09:36:30;27.80;75.60
7704;DHT22;3894;49.700;10.770;2022-07-29T09:39:03;28.40;75.40
7704;DHT22;3894;49.700;10.770;2022-07-29T09:41:29;28.60;75.50
7704;DHT22;3894;49.700;10.770;2022-07-29T09:43:56;29.10;74.10
7704;DHT22;3894;49.700;10.770;2022-07-29T09:46:23;29.10;73.80
7704;DHT22;3894;49.700;10.770;2022-07-29T09:49:09;29.00;73.90
7704;DHT22;3894;49.700;10.770;2022-07-29T09:51:35;29.00;73.40
7704;DHT22;3894;49.700;10.770;2022-07-29T09:54:01;28.60;72.70
7704;DHT22;3894;49.700;10.770;2022-07-29T09:56:42;29.00;74.70
7704;DHT22;3894;49.700;10.770;2022-07-29T09:59:08;29.40;73.50
7704;DHT22;3894;49.700;10.770;2022-07-29T10:01:34;29.60;72.50
7704;DHT22;3894;49.700;10.770;2022-07-29T10:04:01;29.30;72.50
7704;DHT22;3894;49.700;10.770;2022-07-29T10:06:27;29.00;71.90
7704;DHT22;3894;49.700;10.770;2022-07-29T10:08:53;29.20;73.10
7704;DHT22;3894;49.700;10.770;2022-07-29T10:11:19;29.20;72.60
7704;DHT22;3894;49.700;10.770;2022-07-29T10:13:47;28.80;73.80
7704;DHT22;3894;49.700;10.770;2022-07-29T10:16:14;28.60;73.70
7704;DHT22;3894;49.700;10.770;2022-07-29T10:18:44;28.30;74.50
7704;DHT22;3894;49.700;10.770;2022-07-29T10:21:10;28.30;74.80
7704;DHT22;3894;49.700;10.770;2022-07-29T10:23:36;28.40;75.10
7704;DHT22;3894;49.700;10.770;2022-07-29T10:26:03;28.40;75.20
7704;DHT22;3894;49.700;10.770;2022-07-29T10:28:32;28.40;75.00
7704;DHT22;3894;49.700;10.770;2022-07-29T10:31:26;28.40;75.30
7704;DHT22;3894;49.700;10.770;2022-07-29T10:34:23;28.40;75.10
7704;DHT22;3894;49.700;10.770;2022-07-29T10:37:19;28.10;75.00
7704;DHT22;3894;49.700;10.770;2022-07-29T10:40:00;27.90;75.50
7704;DHT22;3894;49.700;10.770;2022-07-29T10:42:49;28.20;75.30
7704;DHT22;3894;49.700;10.770;2022-07-29T10:45:17;28.40;74.30
7704;DHT22;3894;49.700;10.770;2022-07-29T10:47:42;28.10;75.30
7704;DHT22;3894;49.700;10.770;2022-07-29T10:50:08;28.70;74.70
7704;DHT22;3894;49.700;10.770;2022-07-29T10:55:35;29.30;71.80
7704;DHT22;3894;49.700;10.770;2022-07-29T10:58:15;29.20;73.70
7704;DHT22;3894;49.700;10.770;2022-07-29T11:00:41;29.40;72.00
7704;DHT22;3894;49.700;10.770;2022-07-29T11:03:06;29.60;73.20
7704;DHT22;3894;49.700;10.770;2022-07-29T11:05:51;29.90;71.10
7704;DHT22;3894;49.700;10.770;2022-07-29T11:08:20;30.00;70.40
7704;DHT22;3894;49.700;10.770;2022-07-29T11:10:49;30.30;69.70
7704;DHT22;3894;49.700;10.770;2022-07-29T11:16:09;29.50;70.30
7704;DHT22;3894;49.700;10.770;2022-07-29T11:18:34;29.30;71.10
7704;DHT22;3894;49.700;10.770;2022-07-29T11:21:00;29.40;70.80
7704;DHT22;3894;49.700;10.770;2022-07-29T11:23:30;29.30;70.40
7704;DHT22;3894;49.700;10.770;2022-07-29T11:26:19;29.50;72.40
7704;DHT22;3894;49.700;10.770;2022-07-29T11:31:38;30.10;69.80
7704;DHT22;3894;49.700;10.770;2022-07-29T11:34:28;30.80;70.50
7704;DHT22;3894;49.700;10.770;2022-07-29T11:44:55;31.50;68.30
7704;DHT22;3894;49.700;10.770;2022-07-29T11:47:25;31.60;66.20
7704;DHT22;3894;49.700;10.770;2022-07-29T11:49:51;31.60;68.30
7704;DHT22;3894;49.700;10.770;2022-07-29T11:52:18;31.30;68.30
7704;DHT22;3894;49.700;10.770;2022-07-29T11:54:44;31.50;66.50
7704;DHT22;3894;49.700;10.770;2022-07-29T11:57:12;31.70;68.30
7704;DHT22;3894;49.700;10.770;2022-07-29T11:59:39;32.10;68.60
7704;DHT22;3894;49.700;10.770;2022-07-29T12:02:07;32.30;67.60
7704;DHT22;3894;49.700;10.770;2022-07-29T12:04:34;32.50;67.50
7704;DHT22;3894;49.700;10.770;2022-07-29T12:07:00;31.90;66.10
7704;DHT22;3894;49.700;10.770;2022-07-29T12:09:26;32.20;67.80
7704;DHT22;3894;49.700;10.770;2022-07-29T12:11:58;32.30;65.80
7704;DHT22;3894;49.700;10.770;2022-07-29T12:14:28;32.00;67.00
7704;DHT22;3894;49.700;10.770;2022-07-29T12:16:54;32.00;66.70
7704;DHT22;3894;49.700;10.770;2022-07-29T12:19:19;32.30;66.60
7704;DHT22;3894;49.700;10.770;2022-07-29T12:21:45;32.50;65.90
7704;DHT22;3894;49.700;10.770;2022-07-29T12:24:11;32.70;65.40
7704;DHT22;3894;49.700;10.770;2022-07-29T12:26:52;32.60;64.90
7704;DHT22;3894;49.700;10.770;2022-07-29T12:29:18;32.60;64.00
7704;DHT22;3894;49.700;10.770;2022-07-29T12:31:44;32.50;63.00
7704;DHT22;3894;49.700;10.770;2022-07-29T12:34:11;31.50;62.80
7704;DHT22;3894;49.700;10.770;2022-07-29T12:36:37;31.70;65.80
7704;DHT22;3894;49.700;10.770;2022-07-29T12:39:04;32.10;63.50
7704;DHT22;3894;49.700;10.770;2022-07-29T12:41:30;32.40;62.90
7704;DHT22;3894;49.700;10.770;2022-07-29T12:43:56;32.40;63.70
7704;DHT22;3894;49.700;10.770;2022-07-29T12:46:21;32.70;63.80
7704;DHT22;3894;49.700;10.770;2022-07-29T12:48:51;32.50;61.30
7704;DHT22;3894;49.700;10.770;2022-07-29T12:51:32;32.00;64.60
7704;DHT22;3894;49.700;10.770;2022-07-29T12:54:04;32.60;65.20
7704;DHT22;3894;49.700;10.770;2022-07-29T12:56:30;32.60;62.90
7704;DHT22;3894;49.700;10.770;2022-07-29T12:58:56;32.00;62.50
7704;DHT22;3894;49.700;10.770;2022-07-29T13:01:22;31.60;64.40
7704;DHT22;3894;49.700;10.770;2022-07-29T13:03:55;31.40;64.70
7704;DHT22;3894;49.700;10.770;2022-07-29T13:07:03;31.00;63.50
7704;DHT22;3894;49.700;10.770;2022-07-29T13:09:43;30.50;68.30
7704;DHT22;3894;49.700;10.770;2022-07-29T13:12:10;30.20;68.00
7704;DHT22;3894;49.700;10.770;2022-07-29T13:17:12;30.40;69.00
7704;DHT22;3894;49.700;10.770;2022-07-29T13:19:40;30.40;68.50
7704;DHT22;3894;49.700;10.770;2022-07-29T13:22:10;30.60;69.80
7704;DHT22;3894;49.700;10.770;2022-07-29T13:24:50;30.60;68.80
7704;DHT22;3894;49.700;10.770;2022-07-29T13:27:21;30.10;68.40
7704;DHT22;3894;49.700;10.770;2022-07-29T13:29:48;29.90;70.00
7704;DHT22;3894;49.700;10.770;2022-07-29T13:32:16;30.10;70.00
7704;DHT22;3894;49.700;10.770;2022-07-29T13:34:42;30.20;68.70
7704;DHT22;3894;49.700;10.770;2022-07-29T13:37:07;30.10;69.80
7704;DHT22;3894;49.700;10.770;2022-07-29T13:39:33;30.30;69.30
7704;DHT22;3894;49.700;10.770;2022-07-29T13:41:59;30.60;69.40
7704;DHT22;3894;49.700;10.770;2022-07-29T13:44:24;30.80;68.40
7704;DHT22;3894;49.700;10.770;2022-07-29T13:46:50;30.80;68.40
7704;DHT22;3894;49.700;10.770;2022-07-29T13:49:16;30.10;69.10
7704;DHT22;3894;49.700;10.770;2022-07-29T13:51:41;30.10;71.40
7704;DHT22;3894;49.700;10.770;2022-07-29T13:54:07;30.30;70.30
7704;DHT22;3894;49.700;10.770;2022-07-29T13:56:32;30.40;69.90
7704;DHT22;3894;49.700;10.770;2022-07-29T13:58:58;30.40;69.70
7704;DHT22;3894;49.700;10.770;2022-07-29T14:01:24;30.20;69.70
7704;DHT22;3894;49.700;10.770;2022-07-29T14:03:49;30.20;70.70
7704;DHT22;3894;49.700;10.770;2022-07-29T14:06:15;30.10;69.50
7704;DHT22;3894;49.700;10.770;2022-07-29T14:08:40;29.60;70.50
7704;DHT22;3894;49.700;10.770;2022-07-29T14:11:06;29.40;70.90
7704;DHT22;3894;49.700;10.770;2022-07-29T14:13:32;29.20;70.70
7704;DHT22;3894;49.700;10.770;2022-07-29T14:15:57;28.80;71.30
7704;DHT22;3894;49.700;10.770;2022-07-29T14:18:23;28.70;71.90
7704;DHT22;3894;49.700;10.770;2022-07-29T14:20:49;28.40;72.50
7704;DHT22;3894;49.700;10.770;2022-07-29T14:23:15;28.50;72.50
7704;DHT22;3894;49.700;10.770;2022-07-29T14:25:41;28.30;72.10
7704;DHT22;3894;49.700;10.770;2022-07-29T14:28:06;28.30;72.50
7704;DHT22;3894;49.700;10.770;2022-07-29T14:30:32;28.30;72.50
7704;DHT22;3894;49.700;10.770;2022-07-29T14:32:58;28.30;73.50
7704;DHT22;3894;49.700;10.770;2022-07-29T14:35:23;28.40;72.60
7704;DHT22;3894;49.700;10.770;2022-07-29T14:37:49;28.40;72.80
7704;DHT22;3894;49.700;10.770;2022-07-29T14:40:24;28.40;72.70
7704;DHT22;3894;49.700;10.770;2022-07-29T14:42:51;28.40;72.70
7704;DHT22;3894;49.700;10.770;2022-07-29T14:45:17;28.40;75.80
7704;DHT22;3894;49.700;10.770;2022-07-29T14:47:42;28.00;80.60
7704;DHT22;3894;49.700;10.770;2022-07-29T14:50:09;27.50;84.10
7704;DHT22;3894;49.700;10.770;2022-07-29T14:52:35;27.00;87.30
7704;DHT22;3894;49.700;10.770;2022-07-29T14:55:01;26.30;90.20
7704;DHT22;3894;49.700;10.770;2022-07-29T14:57:26;25.90;91.70
7704;DHT22;3894;49.700;10.770;2022-07-29T14:59:52;25.50;93.00
7704;DHT22;3894;49.700;10.770;2022-07-29T15:02:17;25.20;96.00
7704;DHT22;3894;49.700;10.770;2022-07-29T15:04:43;24.80;98.30
7704;DHT22;3894;49.700;10.770;2022-07-29T15:07:11;24.40;99.70
7704;DHT22;3894;49.700;10.770;2022-07-29T15:09:36;24.00;99.90
7704;DHT22;3894;49.700;10.770;2022-07-29T15:12:02;23.70;99.90
7704;DHT22;3894;49.700;10.770;2022-07-29T15:14:28;23.50;99.90
7704;DHT22;3894;49.700;10.770;2022-07-29T15:16:54;23.30;99.90
7704;DHT22;3894;49.700;10.770;2022-07-29T15:19:19;23.20;99.90
7704;DHT22;3894;49.700;10.770;2022-07-29T15:21:45;23.10;99.90
7704;DHT22;3894;49.700;10.770;2022-07-29T15:24:10;23.00;99.90
7704;DHT22;3894;49.700;10.770;2022-07-29T15:26:36;23.00;99.90
7704;DHT22;3894;49.700;10.770;2022-07-29T15:29:01;22.80;99.90
7704;DHT22;3894;49.700;10.770;2022-07-29T15:31:27;22.70;99.90
7704;DHT22;3894;49.700;10.770;2022-07-29T15:33:52;22.70;99.90
7704;DHT22;3894;49.700;10.770;2022-07-29T15:36:18;22.50;99.90
7704;DHT22;3894;49.700;10.770;2022-07-29T15:38:44;22.50;99.90
7704;DHT22;3894;49.700;10.770;2022-07-29T15:41:13;22.40;99.90
7704;DHT22;3894;49.700;10.770;2022-07-29T15:43:43;22.30;99.90
7704;DHT22;3894;49.700;10.770;2022-07-29T15:46:16;22.20;99.90
7704;DHT22;3894;49.700;10.770;2022-07-29T15:49:09;22.10;99.90
7704;DHT22;3894;49.700;10.770;2022-07-29T15:51:36;22.00;99.90
7704;DHT22;3894;49.700;10.770;2022-07-29T15:54:04;22.00;99.90
7704;DHT22;3894;49.700;10.770;2022-07-29T15:56:38;22.30;99.90
7704;DHT22;3894;49.700;10.770;2022-07-29T15:59:07;22.40;99.90
7704;DHT22;3894;49.700;10.770;2022-07-29T16:01:44;22.50;99.90
7704;DHT22;3894;49.700;10.770;2022-07-29T16:04:40;22.50;99.90
7704;DHT22;3894;49.700;10.770;2022-07-29T16:07:27;22.50;99.90
7704;DHT22;3894;49.700;10.770;2022-07-29T16:09:52;22.40;99.90
7704;DHT22;3894;49.700;10.770;2022-07-29T16:12:20;22.30;99.90
7704;DHT22;3894;49.700;10.770;2022-07-29T16:14:45;22.30;99.90
7704;DHT22;3894;49.700;10.770;2022-07-29T16:17:13;22.20;99.90
7704;DHT22;3894;49.700;10.770;2022-07-29T16:19:39;22.20;99.90
7704;DHT22;3894;49.700;10.770;2022-07-29T16:22:04;22.30;99.90